sensor_id;sensor_type;location;lat;lon;timestamp;pressure;altitude;pressure_sealevel;temperature;humidity
59190;BME280;50749;51.636;4.948;2023-03-18T00:01:19;100822.28;;;18.29;50.73
59190;BME280;50749;51.636;4.948;2023-03-18T00:03:46;100831.75;;;18.28;50.20
59190;BME280;50749;51.636;4.948;2023-03-18T00:06:15;100820.69;;;18.28;50.26
59190;BME280;50749;51.636;4.948;2023-03-18T00:08:42;100823.81;;;18.26;50.38
59190;BME280;50749;51.636;4.948;2023-03-18T00:11:11;100828.56;;;18.26;50.38
59190;BME280;50749;51.636;4.948;2023-03-18T00:13:38;100826.94;;;18.25;50.74
59190;BME280;50749;51.636;4.948;2023-03-18T00:16:07;100828.09;;;18.24;50.49
59190;BME280;50749;51.636;4.948;2023-03-18T00:18:34;100820.63;;;18.24;50.65
59190;BME280;50749;51.636;4.948;2023-03-18T00:21:01;100822.56;;;18.24;50.53
59190;BME280;50749;51.636;4.948;2023-03-18T00:23:27;100819.38;;;18.22;50.26
59190;BME280;50749;51.636;4.948;2023-03-18T00:25:55;100820.16;;;18.22;50.76
59190;BME280;50749;51.636;4.948;2023-03-18T00:28:22;100821.34;;;18.21;50.56
59190;BME280;50749;51.636;4.948;2023-03-18T00:30:49;100822.84;;;18.18;50.36
59190;BME280;50749;51.636;4.948;2023-03-18T00:33:15;100820.91;;;18.19;50.58
59190;BME280;50749;51.636;4.948;2023-03-18T00:35:41;100822.84;;;18.18;50.40
59190;BME280;50749;51.636;4.948;2023-03-18T00:38:07;100821.25;;;18.17;50.42
59190;BME280;50749;51.636;4.948;2023-03-18T00:40:35;100823.19;;;18.17;50.44
59190;BME280;50749;51.636;4.948;2023-03-18T00:43:22;100827.94;;;18.16;50.62
59190;BME280;50749;51.636;4.948;2023-03-18T00:45:55;100820.78;;;18.15;50.64
59190;BME280;50749;51.636;4.948;2023-03-18T00:48:23;100824.75;;;18.14;50.65
59190;BME280;50749;51.636;4.948;2023-03-18T00:50:49;100820.00;;;18.15;50.65
59190;BME280;50749;51.636;4.948;2023-03-18T00:53:16;100819.22;;;18.14;50.43
59190;BME280;50749;51.636;4.948;2023-03-18T00:55:42;100820.34;;;18.13;50.37
59190;BME280;50749;51.636;4.948;2023-03-18T00:58:09;100826.69;;;18.14;50.31
59190;BME280;50749;51.636;4.948;2023-03-18T01:00:37;100823.47;;;18.12;50.58
59190;BME280;50749;51.636;4.948;2023-03-18T01:03:03;100823.84;;;18.10;50.50
59190;BME280;50749;51.636;4.948;2023-03-18T01:05:30;100822.69;;;18.11;50.23
59190;BME280;50749;51.636;4.948;2023-03-18T01:07:57;100824.66;;;18.11;50.29
59190;BME280;50749;51.636;4.948;2023-03-18T01:10:23;100817.50;;;18.10;50.55
59190;BME280;50749;51.636;4.948;2023-03-18T01:12:49;100819.50;;;18.09;50.73
59190;BME280;50749;51.636;4.948;2023-03-18T01:15:17;100824.19;;;18.09;50.58
59190;BME280;50749;51.636;4.948;2023-03-18T01:17:44;100824.19;;;18.09;50.56
59190;BME280;50749;51.636;4.948;2023-03-18T01:20:13;100819.84;;;18.08;50.56
59190;BME280;50749;51.636;4.948;2023-03-18T01:22:39;100821.34;;;18.05;50.54
59190;BME280;50749;51.636;4.948;2023-03-18T01:25:09;100825.72;;;18.06;50.58
59190;BME280;50749;51.636;4.948;2023-03-18T01:27:36;100834.03;;;18.06;50.58
59190;BME280;50749;51.636;4.948;2023-03-18T01:30:04;100835.19;;;18.05;50.39
59190;BME280;50749;51.636;4.948;2023-03-18T01:32:30;100829.66;;;18.05;50.72
59190;BME280;50749;51.636;4.948;2023-03-18T01:34:56;100836.34;;;18.04;50.78
59190;BME280;50749;51.636;4.948;2023-03-18T01:37:22;100837.94;;;18.05;50.45
59190;BME280;50749;51.636;4.948;2023-03-18T01:39:48;100836.34;;;18.04;50.68
59190;BME280;50749;51.636;4.948;2023-03-18T01:42:14;100826.44;;;18.03;50.61
59190;BME280;50749;51.636;4.948;2023-03-18T01:44:43;100833.94;;;18.03;50.62
59190;BME280;50749;51.636;4.948;2023-03-18T01:47:10;100834.31;;;18.01;50.75
59190;BME280;50749;51.636;4.948;2023-03-18T01:49:43;100835.88;;;18.02;50.58
59190;BME280;50749;51.636;4.948;2023-03-18T01:52:16;100840.63;;;18.01;50.58
59190;BME280;50749;51.636;4.948;2023-03-18T01:54:58;100838.22;;;18.00;50.47
59190;BME280;50749;51.636;4.948;2023-03-18T01:57:26;100841.00;;;18.00;50.47
59190;BME280;50749;51.636;4.948;2023-03-18T01:59:53;100831.09;;;17.99;50.65
59190;BME280;50749;51.636;4.948;2023-03-18T02:02:20;100833.88;;;17.99;50.64
59190;BME280;50749;51.636;4.948;2023-03-18T02:04:49;100831.09;;;17.99;50.56
59190;BME280;50749;51.636;4.948;2023-03-18T02:07:21;100827.50;;;17.98;50.53
59190;BME280;50749;51.636;4.948;2023-03-18T02:09:48;100825.94;;;17.97;50.78
59190;BME280;50749;51.636;4.948;2023-03-18T02:12:20;100823.94;;;17.98;50.61
59190;BME280;50749;51.636;4.948;2023-03-18T02:14:48;100833.41;;;17.97;50.79
59190;BME280;50749;51.636;4.948;2023-03-18T02:17:18;100832.59;;;17.96;50.60
59190;BME280;50749;51.636;4.948;2023-03-18T02:20:23;100831.00;;;17.95;50.70
59190;BME280;50749;51.636;4.948;2023-03-18T02:22:57;100826.63;;;17.94;50.54
59190;BME280;50749;51.636;4.948;2023-03-18T02:25:37;100832.53;;;17.93;50.86
59190;BME280;50749;51.636;4.948;2023-03-18T02:28:08;100834.50;;;17.92;50.52
59190;BME280;50749;51.636;4.948;2023-03-18T02:30:43;100830.91;;;17.92;50.48
59190;BME280;50749;51.636;4.948;2023-03-18T02:33:13;100834.50;;;17.92;50.80
59190;BME280;50749;51.636;4.948;2023-03-18T02:35:41;100830.91;;;17.92;50.62
59190;BME280;50749;51.636;4.948;2023-03-18T02:38:08;100829.31;;;17.91;50.77
59190;BME280;50749;51.636;4.948;2023-03-18T02:40:37;100833.66;;;17.92;50.74
59190;BME280;50749;51.636;4.948;2023-03-18T02:43:27;100841.19;;;17.91;50.73
59190;BME280;50749;51.636;4.948;2023-03-18T02:48:45;100843.50;;;17.89;50.79
59190;BME280;50749;51.636;4.948;2023-03-18T02:51:14;100844.31;;;17.90;50.60
59190;BME280;50749;51.636;4.948;2023-03-18T02:53:42;100850.63;;;17.90;50.91
59190;BME280;50749;51.636;4.948;2023-03-18T02:56:08;100843.50;;;17.89;50.89
59190;BME280;50749;51.636;4.948;2023-03-18T02:58:35;100849.03;;;17.89;50.97
59190;BME280;50749;51.636;4.948;2023-03-18T03:01:02;100850.19;;;17.88;50.95
59190;BME280;50749;51.636;4.948;2023-03-18T03:03:29;100848.59;;;17.87;50.70
59190;BME280;50749;51.636;4.948;2023-03-18T03:05:56;100865.19;;;17.87;50.85
59190;BME280;50749;51.636;4.948;2023-03-18T03:08:21;100862.44;;;17.87;50.76
59190;BME280;50749;51.636;4.948;2023-03-18T03:10:48;100864.38;;;17.87;50.75
59190;BME280;50749;51.636;4.948;2023-03-18T03:13:15;100867.13;;;17.87;50.60
59190;BME280;50749;51.636;4.948;2023-03-18T03:15:42;100871.03;;;17.86;51.04
59190;BME280;50749;51.636;4.948;2023-03-18T03:18:08;100868.28;;;17.86;51.04
59190;BME280;50749;51.636;4.948;2023-03-18T03:20:35;100870.22;;;17.85;50.85
59190;BME280;50749;51.636;4.948;2023-03-18T03:23:04;100876.94;;;17.84;50.66
59190;BME280;50749;51.636;4.948;2023-03-18T03:25:30;100871.41;;;17.84;51.19
59190;BME280;50749;51.636;4.948;2023-03-18T03:27:57;100873.34;;;17.83;51.09
59190;BME280;50749;51.636;4.948;2023-03-18T03:30:23;100878.06;;;17.83;51.12
59190;BME280;50749;51.636;4.948;2023-03-18T03:32:49;100874.16;;;17.84;50.86
59190;BME280;50749;51.636;4.948;2023-03-18T03:35:17;100877.28;;;17.82;50.83
59190;BME280;50749;51.636;4.948;2023-03-18T03:37:44;100870.13;;;17.81;50.87
59190;BME280;50749;51.636;4.948;2023-03-18T03:40:15;100876.50;;;17.82;50.76
59190;BME280;50749;51.636;4.948;2023-03-18T03:42:42;100882.03;;;17.82;51.09
59190;BME280;50749;51.636;4.948;2023-03-18T03:45:09;100887.91;;;17.80;50.83
59190;BME280;50749;51.636;4.948;2023-03-18T03:47:35;100886.72;;;17.81;50.77
59190;BME280;50749;51.636;4.948;2023-03-18T03:50:01;100892.25;;;17.81;50.88
59190;BME280;50749;51.636;4.948;2023-03-18T03:52:27;100886.72;;;17.81;50.87
59190;BME280;50749;51.636;4.948;2023-03-18T03:54:53;100890.66;;;17.80;51.08
59190;BME280;50749;51.636;4.948;2023-03-18T03:57:21;100897.34;;;17.79;51.14
59190;BME280;50749;51.636;4.948;2023-03-18T03:59:49;100896.56;;;17.79;50.96
59190;BME280;50749;51.636;4.948;2023-03-18T04:02:16;100893.78;;;17.79;51.18
59190;BME280;50749;51.636;4.948;2023-03-18T04:04:42;100890.19;;;17.78;51.24
59190;BME280;50749;51.636;4.948;2023-03-18T04:07:10;100891.03;;;17.79;51.29
59190;BME280;50749;51.636;4.948;2023-03-18T04:09:37;100888.59;;;17.77;51.21
59190;BME280;50749;51.636;4.948;2023-03-18T04:12:03;100896.91;;;17.77;50.99
59190;BME280;50749;51.636;4.948;2023-03-18T04:14:30;100897.69;;;17.78;51.19
59190;BME280;50749;51.636;4.948;2023-03-18T04:16:56;100890.56;;;17.77;50.98
59190;BME280;50749;51.636;4.948;2023-03-18T04:19:24;100898.06;;;17.76;51.28
59190;BME280;50749;51.636;4.948;2023-03-18T04:21:50;100900.03;;;17.76;51.13
59190;BME280;50749;51.636;4.948;2023-03-18T04:24:16;100898.06;;;17.76;50.95
59190;BME280;50749;51.636;4.948;2023-03-18T04:26:42;100906.34;;;17.76;51.43
59190;BME280;50749;51.636;4.948;2023-03-18T04:29:08;100911.88;;;17.76;51.33
59190;BME280;50749;51.636;4.948;2023-03-18T04:31:34;100915.81;;;17.75;51.03
59190;BME280;50749;51.636;4.948;2023-03-18T04:34:00;100918.59;;;17.75;51.40
59190;BME280;50749;51.636;4.948;2023-03-18T04:36:26;100920.53;;;17.75;51.32
59190;BME280;50749;51.636;4.948;2023-03-18T04:38:53;100920.53;;;17.75;51.48
59190;BME280;50749;51.636;4.948;2023-03-18T04:41:19;100921.34;;;17.75;51.33
59190;BME280;50749;51.636;4.948;2023-03-18T04:43:45;100919.72;;;17.74;51.29
59190;BME280;50749;51.636;4.948;2023-03-18T04:46:12;100924.47;;;17.74;51.00
59190;BME280;50749;51.636;4.948;2023-03-18T04:48:38;100918.13;;;17.73;51.08
59190;BME280;50749;51.636;4.948;2023-03-18T04:51:04;100927.22;;;17.74;51.07
59190;BME280;50749;51.636;4.948;2023-03-18T04:53:34;100927.59;;;17.72;51.14
59190;BME280;50749;51.636;4.948;2023-03-18T04:56:00;100923.66;;;17.73;51.24
59190;BME280;50749;51.636;4.948;2023-03-18T04:58:26;100929.16;;;17.73;51.21
59190;BME280;50749;51.636;4.948;2023-03-18T05:00:52;100924.81;;;17.72;51.40
59190;BME280;50749;51.636;4.948;2023-03-18T05:03:18;100933.13;;;17.72;51.29
59190;BME280;50749;51.636;4.948;2023-03-18T05:05:44;100926.75;;;17.72;51.25
59190;BME280;50749;51.636;4.948;2023-03-18T05:08:10;100938.66;;;17.72;51.38
59190;BME280;50749;51.636;4.948;2023-03-18T05:10:37;100928.72;;;17.71;51.48
59190;BME280;50749;51.636;4.948;2023-03-18T05:13:05;100935.44;;;17.70;51.41
59190;BME280;50749;51.636;4.948;2023-03-18T05:15:31;100934.59;;;17.70;51.50
59190;BME280;50749;51.636;4.948;2023-03-18T05:17:59;100941.75;;;17.71;51.20
59190;BME280;50749;51.636;4.948;2023-03-18T05:20:25;100941.75;;;17.71;51.51
59190;BME280;50749;51.636;4.948;2023-03-18T05:22:51;100936.59;;;17.69;51.70
59190;BME280;50749;51.636;4.948;2023-03-18T05:25:19;100929.09;;;17.70;51.51
59190;BME280;50749;51.636;4.948;2023-03-18T05:27:45;100919.19;;;17.69;51.45
59190;BME280;50749;51.636;4.948;2023-03-18T05:30:12;100917.22;;;17.69;51.45
59190;BME280;50749;51.636;4.948;2023-03-18T05:32:41;100933.81;;;17.69;51.36
59190;BME280;50749;51.636;4.948;2023-03-18T05:35:07;100932.19;;;17.68;51.34
59190;BME280;50749;51.636;4.948;2023-03-18T05:37:35;100937.72;;;17.68;51.51
59190;BME280;50749;51.636;4.948;2023-03-18T05:40:02;100933.81;;;17.69;51.56
59190;BME280;50749;51.636;4.948;2023-03-18T05:42:29;100934.16;;;17.68;51.44
59190;BME280;50749;51.636;4.948;2023-03-18T05:44:55;100934.97;;;17.68;51.57
59190;BME280;50749;51.636;4.948;2023-03-18T05:47:21;100930.63;;;17.67;51.41
59190;BME280;50749;51.636;4.948;2023-03-18T05:49:47;100936.94;;;17.68;51.46
59190;BME280;50749;51.636;4.948;2023-03-18T05:52:13;100943.25;;;17.68;51.30
59190;BME280;50749;51.636;4.948;2023-03-18T05:54:42;100948.34;;;17.66;51.71
59190;BME280;50749;51.636;4.948;2023-03-18T05:57:08;100953.06;;;17.66;51.86
59190;BME280;50749;51.636;4.948;2023-03-18T05:59:34;100946.72;;;17.65;51.33
59190;BME280;50749;51.636;4.948;2023-03-18T06:02:01;100957.78;;;17.65;51.73
59190;BME280;50749;51.636;4.948;2023-03-18T06:04:26;100957.00;;;17.64;51.25
59190;BME280;50749;51.636;4.948;2023-03-18T06:06:52;100953.06;;;17.66;51.40
59190;BME280;50749;51.636;4.948;2023-03-18T06:09:19;100964.13;;;17.66;51.43
59190;BME280;50749;51.636;4.948;2023-03-18T06:11:47;100954.22;;;17.64;51.38
59190;BME280;50749;51.636;4.948;2023-03-18T06:14:13;100964.13;;;17.66;51.38
59190;BME280;50749;51.636;4.948;2023-03-18T06:16:40;100966.91;;;17.66;51.58
59190;BME280;50749;51.636;4.948;2023-03-18T06:19:06;100965.63;;;17.63;51.31
59190;BME280;50749;51.636;4.948;2023-03-18T06:21:33;100968.41;;;17.63;51.53
59190;BME280;50749;51.636;4.948;2023-03-18T06:23:59;100977.88;;;17.62;51.62
59190;BME280;50749;51.636;4.948;2023-03-18T06:26:26;100975.53;;;17.64;51.35
59190;BME280;50749;51.636;4.948;2023-03-18T06:28:52;100976.78;;;17.67;51.32
59190;BME280;50749;51.636;4.948;2023-03-18T06:31:18;100976.44;;;17.68;51.19
59190;BME280;50749;51.636;4.948;2023-03-18T06:33:43;100977.34;;;17.72;51.42
59190;BME280;50749;51.636;4.948;2023-03-18T06:36:10;100989.31;;;17.76;51.06
59190;BME280;50749;51.636;4.948;2023-03-18T06:38:36;100979.16;;;17.80;51.39
59190;BME280;50749;51.636;4.948;2023-03-18T06:41:03;100988.34;;;17.85;51.22
59190;BME280;50749;51.636;4.948;2023-03-18T06:43:29;100992.06;;;17.89;51.06
59190;BME280;50749;51.636;4.948;2023-03-18T06:45:55;100996.06;;;17.91;51.20
59190;BME280;50749;51.636;4.948;2023-03-18T06:48:21;100987.06;;;17.94;50.67
59190;BME280;50749;51.636;4.948;2023-03-18T06:50:48;100999.34;;;17.97;51.37
59190;BME280;50749;51.636;4.948;2023-03-18T06:53:14;101002.25;;;18.00;50.93
59190;BME280;50749;51.636;4.948;2023-03-18T06:55:40;101001.06;;;18.01;51.05
59190;BME280;50749;51.636;4.948;2023-03-18T06:58:05;100999.56;;;18.04;50.87
59190;BME280;50749;51.636;4.948;2023-03-18T07:00:32;101003.94;;;18.05;51.18
59190;BME280;50749;51.636;4.948;2023-03-18T07:02:59;101002.78;;;18.06;51.38
59190;BME280;50749;51.636;4.948;2023-03-18T07:05:26;101006.00;;;18.08;51.33
59190;BME280;50749;51.636;4.948;2023-03-18T07:07:52;101013.94;;;18.10;51.62
59190;BME280;50749;51.636;4.948;2023-03-18T07:10:24;101006.91;;;18.12;51.21
59190;BME280;50749;51.636;4.948;2023-03-18T07:12:52;101018.41;;;18.14;51.31
59190;BME280;50749;51.636;4.948;2023-03-18T07:15:19;101005.47;;;18.18;51.27
59190;BME280;50749;51.636;4.948;2023-03-18T07:17:46;101021.78;;;18.24;51.25
59190;BME280;50749;51.636;4.948;2023-03-18T07:20:12;101018.31;;;18.27;51.89
59190;BME280;50749;51.636;4.948;2023-03-18T07:22:38;101019.25;;;18.31;51.24
59190;BME280;50749;51.636;4.948;2023-03-18T07:25:04;101026.34;;;18.32;51.49
59190;BME280;50749;51.636;4.948;2023-03-18T07:27:30;101030.13;;;18.40;52.29
59190;BME280;50749;51.636;4.948;2023-03-18T07:29:57;101033.34;;;18.42;52.07
59190;BME280;50749;51.636;4.948;2023-03-18T07:32:22;101039.75;;;18.46;51.51
59190;BME280;50749;51.636;4.948;2023-03-18T07:34:48;101032.72;;;18.48;51.58
59190;BME280;50749;51.636;4.948;2023-03-18T07:37:14;101033.97;;;18.51;51.77
59190;BME280;50749;51.636;4.948;2023-03-18T07:39:42;101034.50;;;18.56;52.02
59190;BME280;50749;51.636;4.948;2023-03-18T07:42:09;101029.50;;;18.62;51.62
59190;BME280;50749;51.636;4.948;2023-03-18T07:44:36;101041.13;;;18.68;51.57
59190;BME280;50749;51.636;4.948;2023-03-18T07:47:02;101044.06;;;18.75;51.99
59190;BME280;50749;51.636;4.948;2023-03-18T07:49:29;101039.38;;;18.79;52.22
59190;BME280;50749;51.636;4.948;2023-03-18T07:51:55;101029.25;;;18.83;51.46
59190;BME280;50749;51.636;4.948;2023-03-18T07:54:21;101028.97;;;18.88;52.51
59190;BME280;50749;51.636;4.948;2023-03-18T07:56:48;101038.16;;;18.92;51.49
59190;BME280;50749;51.636;4.948;2023-03-18T07:59:14;101035.66;;;18.87;51.32
59190;BME280;50749;51.636;4.948;2023-03-18T08:01:40;101025.41;;;18.88;51.79
59190;BME280;50749;51.636;4.948;2023-03-18T08:04:07;101026.19;;;18.88;51.37
59190;BME280;50749;51.636;4.948;2023-03-18T08:06:33;101020.72;;;18.92;51.94
59190;BME280;50749;51.636;4.948;2023-03-18T08:09:00;101022.44;;;18.97;51.88
59190;BME280;50749;51.636;4.948;2023-03-18T08:11:26;101026.34;;;18.96;51.60
59190;BME280;50749;51.636;4.948;2023-03-18T08:13:52;101030.47;;;19.02;51.90
59190;BME280;50749;51.636;4.948;2023-03-18T08:16:18;101021.44;;;19.05;52.01
59190;BME280;50749;51.636;4.948;2023-03-18T08:18:44;101017.03;;;19.04;51.89
59190;BME280;50749;51.636;4.948;2023-03-18T08:21:10;101028.84;;;19.01;51.93
59190;BME280;50749;51.636;4.948;2023-03-18T08:23:36;101030.81;;;19.00;51.98
59190;BME280;50749;51.636;4.948;2023-03-18T08:26:03;101036.72;;;18.99;51.54
59190;BME280;50749;51.636;4.948;2023-03-18T08:28:29;101037.88;;;18.98;52.10
59190;BME280;50749;51.636;4.948;2023-03-18T08:30:56;101039.84;;;18.97;51.87
59190;BME280;50749;51.636;4.948;2023-03-18T08:33:23;101039.50;;;18.99;52.10
59190;BME280;50749;51.636;4.948;2023-03-18T08:35:49;101036.72;;;18.99;51.81
59190;BME280;50749;51.636;4.948;2023-03-18T08:38:17;101040.63;;;18.98;52.15
59190;BME280;50749;51.636;4.948;2023-03-18T08:40:44;101044.59;;;18.97;51.87
59190;BME280;50749;51.636;4.948;2023-03-18T08:43:11;101053.34;;;18.99;51.92
59190;BME280;50749;51.636;4.948;2023-03-18T08:45:36;101050.22;;;19.00;51.91
59190;BME280;50749;51.636;4.948;2023-03-18T08:48:02;101055.31;;;18.98;52.23
59190;BME280;50749;51.636;4.948;2023-03-18T08:50:28;101052.63;;;19.02;52.28
59190;BME280;50749;51.636;4.948;2023-03-18T08:52:56;101059.41;;;19.04;52.35
59190;BME280;50749;51.636;4.948;2023-03-18T08:55:27;101059.03;;;19.06;52.18
59190;BME280;50749;51.636;4.948;2023-03-18T08:57:54;101062.63;;;19.06;51.95
59190;BME280;50749;51.636;4.948;2023-03-18T09:00:20;101064.59;;;19.06;52.01
59190;BME280;50749;51.636;4.948;2023-03-18T09:02:47;101061.81;;;19.06;51.86
59190;BME280;50749;51.636;4.948;2023-03-18T09:05:13;101068.19;;;19.06;52.11
59190;BME280;50749;51.636;4.948;2023-03-18T09:07:39;101060.66;;;19.07;51.89
59190;BME280;50749;51.636;4.948;2023-03-18T09:10:05;101070.94;;;19.06;52.10
59190;BME280;50749;51.636;4.948;2023-03-18T09:12:31;101063.44;;;19.07;52.22
59190;BME280;50749;51.636;4.948;2023-03-18T09:14:57;101068.97;;;19.07;51.97
59190;BME280;50749;51.636;4.948;2023-03-18T09:17:23;101072.53;;;19.07;52.25
59190;BME280;50749;51.636;4.948;2023-03-18T09:19:50;101073.34;;;19.08;51.74
59190;BME280;50749;51.636;4.948;2023-03-18T09:22:16;101067.78;;;19.08;51.74
59190;BME280;50749;51.636;4.948;2023-03-18T09:24:42;101059.47;;;19.08;52.08
59190;BME280;50749;51.636;4.948;2023-03-18T09:27:08;101070.19;;;19.09;52.09
59190;BME280;50749;51.636;4.948;2023-03-18T09:29:34;101064.66;;;19.09;52.40
59190;BME280;50749;51.636;4.948;2023-03-18T09:32:01;101057.16;;;19.10;52.14
59190;BME280;50749;51.636;4.948;2023-03-18T09:34:26;101057.53;;;19.08;52.31
59190;BME280;50749;51.636;4.948;2023-03-18T09:36:52;101050.38;;;19.07;52.02
59190;BME280;50749;51.636;4.948;2023-03-18T09:39:19;101046.09;;;19.10;52.28
59190;BME280;50749;51.636;4.948;2023-03-18T09:44:32;101043.75;;;19.12;52.25
59190;BME280;50749;51.636;4.948;2023-03-18T09:47:42;101044.09;;;19.10;52.29
59190;BME280;50749;51.636;4.948;2023-03-18T09:50:10;101046.44;;;19.08;52.32
59190;BME280;50749;51.636;4.948;2023-03-18T09:52:44;101048.78;;;19.06;52.11
59190;BME280;50749;51.636;4.948;2023-03-18T09:55:23;101057.44;;;19.05;52.30
59190;BME280;50749;51.636;4.948;2023-03-18T09:57:53;101058.97;;;19.02;52.24
59190;BME280;50749;51.636;4.948;2023-03-18T10:00:27;101060.56;;;19.03;52.07
59190;BME280;50749;51.636;4.948;2023-03-18T10:03:00;101058.59;;;19.04;52.19
59190;BME280;50749;51.636;4.948;2023-03-18T10:05:48;101067.34;;;19.06;52.60
59190;BME280;50749;51.636;4.948;2023-03-18T10:08:28;101067.72;;;19.04;52.27
59190;BME280;50749;51.636;4.948;2023-03-18T10:11:00;101071.66;;;19.03;52.67
59190;BME280;50749;51.636;4.948;2023-03-18T10:13:44;101074.06;;;19.05;52.33
59190;BME280;50749;51.636;4.948;2023-03-18T10:16:21;101081.22;;;19.06;52.28
59190;BME280;50749;51.636;4.948;2023-03-18T10:18:48;101063.00;;;19.05;52.75
59190;BME280;50749;51.636;4.948;2023-03-18T10:21:25;101071.38;;;19.08;52.63
59190;BME280;50749;51.636;4.948;2023-03-18T10:24:19;101078.88;;;19.08;52.58
59190;BME280;50749;51.636;4.948;2023-03-18T10:29:43;101071.03;;;19.10;52.44
59190;BME280;50749;51.636;4.948;2023-03-18T10:38:34;101067.78;;;19.08;52.37
59190;BME280;50749;51.636;4.948;2023-03-18T10:41:01;101063.06;;;19.08;52.43
59190;BME280;50749;51.636;4.948;2023-03-18T10:43:30;101063.78;;;19.05;52.40
59190;BME280;50749;51.636;4.948;2023-03-18T10:46:03;101063.00;;;19.05;52.36
59190;BME280;50749;51.636;4.948;2023-03-18T10:48:45;101068.91;;;19.03;52.38
59190;BME280;50749;51.636;4.948;2023-03-18T10:51:19;101066.47;;;19.02;52.42
59190;BME280;50749;51.636;4.948;2023-03-18T10:54:08;101070.03;;;19.02;52.53
59190;BME280;50749;51.636;4.948;2023-03-18T10:56:35;101070.41;;;19.01;52.32
59190;BME280;50749;51.636;4.948;2023-03-18T10:59:09;101061.66;;;18.99;52.46
59190;BME280;50749;51.636;4.948;2023-03-18T11:01:37;101069.59;;;19.00;52.37
59190;BME280;50749;51.636;4.948;2023-03-18T11:04:05;101065.22;;;18.99;52.00
59190;BME280;50749;51.636;4.948;2023-03-18T11:06:45;101068.00;;;18.99;52.50
59190;BME280;50749;51.636;4.948;2023-03-18T11:09:17;101081.03;;;18.99;52.53
59190;BME280;50749;51.636;4.948;2023-03-18T11:11:49;101075.06;;;18.97;52.15
59190;BME280;50749;51.636;4.948;2023-03-18T11:14:20;101070.31;;;18.97;52.35
59190;BME280;50749;51.636;4.948;2023-03-18T11:19:46;101074.16;;;18.92;51.91
59190;BME280;50749;51.636;4.948;2023-03-18T11:22:20;101079.19;;;18.87;51.83
59190;BME280;50749;51.636;4.948;2023-03-18T11:25:17;101068.47;;;18.85;52.33
59190;BME280;50749;51.636;4.948;2023-03-18T11:27:48;101083.94;;;18.86;52.72
59190;BME280;50749;51.636;4.948;2023-03-18T11:32:51;101076.78;;;18.85;52.87
59190;BME280;50749;51.636;4.948;2023-03-18T11:35:21;101070.88;;;18.87;53.19
59190;BME280;50749;51.636;4.948;2023-03-18T11:37:49;101067.31;;;18.86;53.20
59190;BME280;50749;51.636;4.948;2023-03-18T11:40:22;101069.72;;;18.88;53.89
59190;BME280;50749;51.636;4.948;2023-03-18T11:42:56;101071.22;;;18.85;53.53
59190;BME280;50749;51.636;4.948;2023-03-18T11:45:42;101081.88;;;18.83;54.08
59190;BME280;50749;51.636;4.948;2023-03-18T11:48:14;101087.41;;;18.83;53.51
59190;BME280;50749;51.636;4.948;2023-03-18T11:53:58;101090.19;;;18.83;54.26
59190;BME280;50749;51.636;4.948;2023-03-18T11:56:45;101090.19;;;18.83;54.13
59190;BME280;50749;51.636;4.948;2023-03-18T12:10:38;101093.38;;;18.85;55.73
59190;BME280;50749;51.636;4.948;2023-03-18T12:13:31;101089.34;;;18.83;54.14
59190;BME280;50749;51.636;4.948;2023-03-18T12:18:38;101091.56;;;18.77;54.73
59190;BME280;50749;51.636;4.948;2023-03-18T12:22:14;101093.91;;;18.75;54.93
59190;BME280;50749;51.636;4.948;2023-03-18T12:27:09;101088.00;;;18.77;55.03
59190;BME280;50749;51.636;4.948;2023-03-18T12:30:19;101087.66;;;18.78;54.55
59190;BME280;50749;51.636;4.948;2023-03-18T12:33:07;101085.31;;;18.80;55.61
59190;BME280;50749;51.636;4.948;2023-03-18T12:35:42;101086.47;;;18.79;54.97
59190;BME280;50749;51.636;4.948;2023-03-18T12:46:27;101077.00;;;18.80;54.45
59190;BME280;50749;51.636;4.948;2023-03-18T12:49:17;101084.53;;;18.80;54.86
59190;BME280;50749;51.636;4.948;2023-03-18T12:51:55;101082.13;;;18.78;54.62
59190;BME280;50749;51.636;4.948;2023-03-18T12:55:02;101087.66;;;18.78;54.62
59190;BME280;50749;51.636;4.948;2023-03-18T12:57:41;101081.28;;;18.78;54.98
59190;BME280;50749;51.636;4.948;2023-03-18T13:05:41;101074.16;;;18.77;54.78
59190;BME280;50749;51.636;4.948;2023-03-18T13:10:41;101071.03;;;18.78;55.10
59190;BME280;50749;51.636;4.948;2023-03-18T13:13:11;101072.63;;;18.79;55.48
59190;BME280;50749;51.636;4.948;2023-03-18T13:15:50;101074.25;;;18.80;55.22
59190;BME280;50749;51.636;4.948;2023-03-18T13:18:23;101069.50;;;18.81;55.47
59190;BME280;50749;51.636;4.948;2023-03-18T13:20:56;101071.91;;;18.82;55.13
59190;BME280;50749;51.636;4.948;2023-03-18T13:29:07;101061.84;;;18.90;55.48
59190;BME280;50749;51.636;4.948;2023-03-18T13:42:37;101065.84;;;18.92;55.68
59190;BME280;50749;51.636;4.948;2023-03-18T13:47:36;101063.09;;;18.92;56.28
59190;BME280;50749;51.636;4.948;2023-03-18T13:50:32;101050.06;;;18.93;55.89
59190;BME280;50749;51.636;4.948;2023-03-18T13:53:00;101054.06;;;18.96;55.92
59190;BME280;50749;51.636;4.948;2023-03-18T14:00:40;101049.41;;;19.00;55.88
59190;BME280;50749;51.636;4.948;2023-03-18T14:03:20;101041.09;;;19.00;55.30
59190;BME280;50749;51.636;4.948;2023-03-18T14:13:42;101029.41;;;18.90;53.63
59190;BME280;50749;51.636;4.948;2023-03-18T14:16:14;101021.81;;;18.87;53.26
59190;BME280;50749;51.636;4.948;2023-03-18T14:21:24;101010.28;;;18.85;52.20
59190;BME280;50749;51.636;4.948;2023-03-18T14:29:43;101021.00;;;18.87;53.32
59190;BME280;50749;51.636;4.948;2023-03-18T14:32:29;101020.28;;;18.90;53.58
59190;BME280;50749;51.636;4.948;2023-03-18T14:37:30;101010.44;;;18.92;53.75
59190;BME280;50749;51.636;4.948;2023-03-18T14:40:10;101009.66;;;18.92;54.29
59190;BME280;50749;51.636;4.948;2023-03-18T14:42:43;101012.56;;;18.99;54.04